Time;durP1;ratioP1;P1;durP2;ratioP2;P2;SDS_P1;SDS_P2;PMS_P1;PMS_P2;Temp;Humidity;BMP_temperature;BMP_pressure;BME280_temperature;BME280_humidity;BME280_pressure;Samples;Min_cycle;Max_cycle;Signal;HPM_P1;HPM_P2
2022/06/04 00:00:47;;;;;;;20.27;11.63;;;18.10;86.40;;;;;;4955315;29;20031;-81
2022/06/04 00:03:13;;;;;;;22.63;12.77;;;18.20;86.30;;;;;;4954154;28;20035;-81
2022/06/04 00:05:42;;;;;;;22.02;11.82;;;18.10;86.40;;;;;;4956151;28;20102;-81
2022/06/04 00:08:09;;;;;;;23.52;13.65;;;18.10;86.30;;;;;;4936171;29;20703;-81
2022/06/04 00:16:14;;;;;;;18.42;11.52;;;18.10;86.40;;;;;;4944438;29;20034;-80
2022/06/04 00:18:41;;;;;;;19.30;12.50;;;18.10;86.20;;;;;;4946349;29;20469;-80
2022/06/04 00:21:08;;;;;;;17.80;11.57;;;18.00;86.30;;;;;;4960230;29;20031;-81
2022/06/04 00:23:34;;;;;;;17.98;11.35;;;18.00;86.50;;;;;;4963418;28;20039;-81
2022/06/04 00:26:02;;;;;;;18.35;12.57;;;18.00;86.60;;;;;;4961558;28;20023;-81
2022/06/04 00:28:28;;;;;;;22.80;12.48;;;18.00;86.40;;;;;;4948897;28;20095;-81
2022/06/04 00:30:57;;;;;;;19.73;12.57;;;18.00;86.60;;;;;;4944087;29;20028;-81
2022/06/04 00:33:23;;;;;;;17.10;11.40;;;18.00;86.40;;;;;;4963206;28;20028;-81
2022/06/04 00:35:52;;;;;;;18.20;12.05;;;17.90;86.50;;;;;;4960038;28;20436;-81
2022/06/04 00:38:33;;;;;;;;;;;;;;;;;;;;;
2022/06/04 00:41:08;;;;;;;19.45;12.15;;;17.90;86.80;;;;;;4943218;29;20488;-80
2022/06/04 00:43:57;;;;;;;20.92;11.98;;;17.90;86.80;;;;;;4942208;29;20039;-81
2022/06/04 00:46:41;;;;;;;19.83;12.25;;;17.90;86.60;;;;;;4942661;29;20040;-81
2022/06/04 00:49:14;;;;;;;15.52;11.35;;;17.80;86.80;;;;;;4942242;29;20035;-81
2022/06/04 00:51:42;;;;;;;16.73;10.93;;;17.80;86.70;;;;;;4943835;29;20462;-81
2022/06/04 00:54:08;;;;;;;19.13;12.35;;;17.80;86.70;;;;;;4942052;29;20031;-81
2022/06/04 00:56:51;;;;;;;18.02;12.35;;;17.80;86.90;;;;;;4944014;29;20039;-81
2022/06/04 00:59:55;;;;;;;16.70;11.75;;;17.70;87.10;;;;;;4942147;29;20406;-81
2022/06/04 01:02:23;;;;;;;16.85;11.23;;;17.80;87.00;;;;;;4943680;29;20031;-81
2022/06/04 01:05:08;;;;;;;18.45;13.13;;;17.70;87.20;;;;;;4942121;29;20023;-80
2022/06/04 01:08:12;;;;;;;17.42;11.98;;;17.70;87.20;;;;;;4943680;29;20047;-80
2022/06/04 01:10:58;;;;;;;17.45;12.10;;;17.70;87.30;;;;;;4951955;29;20074;-81
2022/06/04 01:14:01;;;;;;;18.02;12.10;;;17.70;87.40;;;;;;4962757;28;20027;-81
2022/06/04 01:16:38;;;;;;;21.98;13.52;;;17.70;87.00;;;;;;4959491;29;20043;-81
2022/06/04 01:19:41;;;;;;;18.35;13.27;;;17.70;87.20;;;;;;4961550;28;20031;-81
2022/06/04 01:22:09;;;;;;;19.92;12.75;;;17.70;87.10;;;;;;4959074;28;20405;-81
2022/06/04 01:24:44;;;;;;;19.02;13.25;;;17.60;87.00;;;;;;4959391;28;20441;-80
2022/06/04 01:27:18;;;;;;;23.38;13.25;;;17.70;87.00;;;;;;4956317;29;20696;-81
2022/06/04 01:29:52;;;;;;;24.85;13.52;;;17.70;86.90;;;;;;4939436;29;20075;-81
2022/06/04 01:32:30;;;;;;;18.33;12.38;;;17.70;86.70;;;;;;4942524;29;20069;-81
2022/06/04 01:35:13;;;;;;;20.38;14.30;;;17.70;87.20;;;;;;4957907;28;20038;-81
2022/06/04 01:37:51;;;;;;;21.88;14.50;;;17.70;86.70;;;;;;4949890;28;20042;-81
2022/06/04 01:43:11;;;;;;;19.60;13.75;;;17.70;86.60;;;;;;4940339;29;20187;-80
2022/06/04 01:45:40;;;;;;;20.75;14.80;;;17.70;86.50;;;;;;4938376;29;20036;-81
2022/06/04 01:48:07;;;;;;;21.05;14.77;;;17.70;86.50;;;;;;4940346;29;20070;-81
2022/06/04 01:50:38;;;;;;;21.42;13.73;;;17.70;86.60;;;;;;4938513;29;20035;-81
2022/06/04 01:53:06;;;;;;;20.42;14.48;;;17.60;86.50;;;;;;4939653;29;20062;-80
2022/06/04 01:55:58;;;;;;;20.45;14.52;;;17.60;86.30;;;;;;4938318;29;20035;-81
2022/06/04 01:58:36;;;;;;;19.85;13.85;;;17.60;86.70;;;;;;4938930;29;20046;-81
2022/06/04 02:01:13;;;;;;;19.27;13.93;;;17.60;86.60;;;;;;4938347;29;20038;-81
2022/06/04 02:03:57;;;;;;;20.40;14.20;;;17.60;86.40;;;;;;4938330;29;20035;-80
2022/06/04 02:06:26;;;;;;;21.73;15.05;;;17.50;86.50;;;;;;4938363;29;20514;-80
2022/06/04 02:09:02;;;;;;;24.02;14.50;;;17.50;86.20;;;;;;4938159;29;20027;-80
2022/06/04 02:11:30;;;;;;;25.85;14.98;;;17.50;86.20;;;;;;4953751;29;20035;-80
2022/06/04 02:14:01;;;;;;;20.45;14.38;;;17.60;86.40;;;;;;4946871;29;20019;-80
2022/06/04 02:16:33;;;;;;;23.70;15.05;;;17.50;86.40;;;;;;4957619;29;20050;-81
2022/06/04 02:18:59;;;;;;;20.60;14.63;;;17.50;86.10;;;;;;4956161;28;20038;-81
2022/06/04 02:21:27;;;;;;;26.42;16.02;;;17.50;86.50;;;;;;4956578;29;20402;-80
2022/06/04 02:23:54;;;;;;;24.90;15.10;;;17.50;86.60;;;;;;4955048;29;20027;-80
2022/06/04 02:26:19;;;;;;;22.45;15.18;;;17.50;86.70;;;;;;4956936;28;20031;-80
2022/06/04 02:28:46;;;;;;;24.95;15.50;;;17.50;86.50;;;;;;4957785;28;20740;-80
2022/06/04 02:31:34;;;;;;;21.42;14.25;;;17.50;86.50;;;;;;4955874;28;20104;-80
2022/06/04 02:34:28;;;;;;;23.42;15.65;;;17.40;86.40;;;;;;4958125;28;20054;-80
2022/06/04 02:36:56;;;;;;;24.83;15.43;;;17.40;86.30;;;;;;4955668;28;20039;-81
2022/06/04 02:39:31;;;;;;;21.25;14.10;;;17.40;86.30;;;;;;4956203;28;20090;-80
2022/06/04 02:42:11;;;;;;;23.65;14.68;;;17.40;86.30;;;;;;4956721;28;20055;-81
2022/06/04 02:44:41;;;;;;;;;;;17.30;86.10;;;;;;4946557;28;20047;-80
2022/06/04 02:47:22;;;;;;;26.75;15.63;;;17.30;86.30;;;;;;4937543;29;19950;-80
2022/06/04 02:50:00;;;;;;;19.83;14.38;;;17.40;86.20;;;;;;4949627;29;20047;-80
2022/06/04 02:52:26;;;;;;;23.50;15.48;;;17.40;86.10;;;;;;4937245;29;20019;-81
2022/06/04 02:55:17;;;;;;;23.52;15.15;;;17.40;86.00;;;;;;4937042;29;20035;-81
2022/06/04 02:57:47;;;;;;;30.08;15.65;;;17.40;86.00;;;;;;4952706;29;20031;-80
2022/06/04 03:00:17;;;;;;;26.20;16.30;;;17.40;86.00;;;;;;4951856;28;20059;-80
2022/06/04 03:02:43;;;;;;;;;;;17.40;86.00;;;;;;4953341;29;20036;-80
2022/06/04 03:05:13;;;;;;;22.85;14.68;;;17.40;86.20;;;;;;4947826;29;19906;-80
2022/06/04 03:07:43;;;;;;;24.38;15.90;;;17.40;86.10;;;;;;4957894;28;20126;-81
2022/06/04 03:10:18;;;;;;;21.73;15.57;;;17.40;85.90;;;;;;4955082;28;20116;-80
2022/06/04 03:12:44;;;;;;;24.95;15.18;;;17.40;86.20;;;;;;4957219;29;20034;-80
2022/06/04 03:15:11;;;;;;;23.65;15.20;;;17.30;86.20;;;;;;4951280;28;20032;-81
2022/06/04 03:17:42;;;;;;;23.73;15.85;;;17.30;86.20;;;;;;4937103;29;20102;-80
2022/06/04 03:20:09;;;;;;;24.33;16.02;;;17.30;86.10;;;;;;4940720;29;20031;-80
2022/06/04 03:22:35;;;;;;;22.55;15.30;;;17.30;85.90;;;;;;4947959;28;20039;-80
2022/06/04 03:25:02;;;;;;;21.33;14.23;;;17.30;86.00;;;;;;4952609;29;20028;-80
2022/06/04 03:27:28;;;;;;;25.13;14.93;;;17.30;86.00;;;;;;4936527;29;20036;-80
2022/06/04 03:29:53;;;;;;;18.42;13.32;;;17.20;86.00;;;;;;4936654;29;20042;-80
2022/06/04 03:32:19;;;;;;;20.35;14.05;;;17.20;85.80;;;;;;4939847;29;20046;-80
2022/06/04 03:34:45;;;;;;;20.02;14.70;;;17.20;85.90;;;;;;4955693;28;20498;-80
2022/06/04 03:37:11;;;;;;;26.90;15.80;;;17.20;86.10;;;;;;4972276;28;20087;-80
2022/06/04 03:39:37;;;;;;;25.50;15.95;;;17.20;86.40;;;;;;4944163;28;20510;-81
2022/06/04 03:42:04;;;;;;;22.45;15.00;;;17.20;86.10;;;;;;4952339;29;20073;-80
2022/06/04 03:44:29;;;;;;;24.70;16.40;;;17.20;85.90;;;;;;4936493;29;20024;-80
2022/06/04 03:46:55;;;;;;;22.13;15.80;;;17.20;86.00;;;;;;4937155;29;20059;-80
2022/06/04 03:49:21;;;;;;;21.63;15.13;;;17.20;85.90;;;;;;4958711;28;20059;-80
2022/06/04 03:51:47;;;;;;;24.77;15.32;;;17.30;85.90;;;;;;4940472;29;20513;-80
2022/06/04 03:54:13;;;;;;;20.00;13.55;;;17.30;86.00;;;;;;4955606;29;20019;-81
2022/06/04 03:56:39;;;;;;;24.83;14.98;;;17.30;86.10;;;;;;4955373;28;20031;-80
2022/06/04 03:59:05;;;;;;;18.75;13.30;;;17.30;86.20;;;;;;4956749;28;20034;-80
2022/06/04 04:01:31;;;;;;;22.35;14.23;;;17.30;86.20;;;;;;4949767;28;20040;-80
2022/06/04 04:03:59;;;;;;;24.95;14.65;;;17.30;86.20;;;;;;4938716;29;20090;-80
2022/06/04 04:06:28;;;;;;;26.05;15.68;;;17.30;86.10;;;;;;4944955;28;20036;-80
2022/06/04 04:08:54;;;;;;;22.83;14.73;;;17.30;86.00;;;;;;4936209;29;20122;-80
2022/06/04 04:11:23;;;;;;;22.50;15.52;;;17.30;85.70;;;;;;4937420;29;20024;-80
2022/06/04 04:13:51;;;;;;;24.55;14.20;;;17.40;85.80;;;;;;4939883;29;20036;-81
2022/06/04 04:16:18;;;;;;;23.55;14.68;;;17.40;86.00;;;;;;4955510;29;20026;-80
2022/06/04 04:18:44;;;;;;;22.42;14.50;;;17.30;86.10;;;;;;4953299;28;20027;-80
2022/06/04 04:21:14;;;;;;;25.95;15.25;;;17.40;86.10;;;;;;4947891;29;20023;-80
2022/06/04 04:23:41;;;;;;;22.75;14.35;;;17.40;86.10;;;;;;4952372;29;20062;-81
2022/06/04 04:26:24;;;;;;;24.02;15.35;;;17.40;86.10;;;;;;4935952;29;20027;-81
2022/06/04 04:28:50;;;;;;;21.50;14.02;;;17.40;86.30;;;;;;4934915;29;20035;-80
2022/06/04 04:31:19;;;;;;;22.27;15.23;;;17.50;86.20;;;;;;4950598;28;20036;-80
2022/06/04 04:33:45;;;;;;;21.58;16.02;;;17.50;86.00;;;;;;4950897;29;20027;-81
2022/06/04 04:36:11;;;;;;;25.13;15.15;;;17.50;86.10;;;;;;4954016;29;20031;-81
2022/06/04 04:38:37;;;;;;;20.85;14.25;;;17.50;86.10;;;;;;4946213;28;20083;-80
2022/06/04 04:41:09;;;;;;;23.40;15.00;;;17.40;86.00;;;;;;4935719;29;20557;-80
2022/06/04 04:43:36;;;;;;;23.85;14.50;;;17.50;86.20;;;;;;4935904;29;20070;-80
2022/06/04 04:46:04;;;;;;;24.17;14.73;;;17.50;85.80;;;;;;4935939;29;20035;-81
2022/06/04 04:48:29;;;;;;;21.75;14.35;;;17.40;86.10;;;;;;4935892;29;20058;-80
2022/06/04 04:50:55;;;;;;;19.50;13.88;;;17.40;86.40;;;;;;4935842;29;20035;-80
2022/06/04 04:53:21;;;;;;;21.90;14.95;;;17.40;86.20;;;;;;4949026;29;20110;-81
2022/06/04 04:55:47;;;;;;;30.33;16.08;;;17.40;86.20;;;;;;4953764;29;20089;-80
2022/06/04 04:58:14;;;;;;;23.25;15.82;;;17.40;85.90;;;;;;4941249;28;20032;-80
2022/06/04 05:00:39;;;;;;;23.60;15.13;;;17.40;85.90;;;;;;4938852;29;20031;-81
2022/06/04 05:03:05;;;;;;;25.35;16.63;;;17.40;86.20;;;;;;4944703;29;20031;-81
2022/06/04 05:05:31;;;;;;;24.38;15.85;;;17.40;86.20;;;;;;4958168;28;20421;-81
2022/06/04 05:07:57;;;;;;;22.35;15.50;;;17.40;86.20;;;;;;4957205;29;20127;-81
2022/06/04 05:10:24;;;;;;;27.23;16.85;;;17.50;85.90;;;;;;4955650;28;20024;-82
2022/06/04 05:12:54;;;;;;;23.30;15.63;;;17.50;86.30;;;;;;4954467;29;20114;-81
2022/06/04 05:15:20;;;;;;;;;;;17.60;86.30;;;;;;4958890;28;20028;-82
2022/06/04 05:17:46;;;;;;;24.10;15.38;;;17.60;86.10;;;;;;4956771;28;19910;-81
2022/06/04 05:20:13;;;;;;;24.63;15.13;;;17.60;86.40;;;;;;4956909;29;20031;-81
2022/06/04 05:22:39;;;;;;;29.58;17.60;;;17.60;86.60;;;;;;4939187;29;20042;-82
2022/06/04 05:25:05;;;;;;;25.05;14.98;;;17.70;86.40;;;;;;4938818;29;20024;-82
2022/06/04 05:27:31;;;;;;;26.48;16.38;;;17.70;86.30;;;;;;4938995;29;20471;-82
2022/06/04 05:29:56;;;;;;;28.33;17.15;;;17.80;86.40;;;;;;4938876;29;20055;-82
2022/06/04 05:32:22;;;;;;;29.17;16.90;;;17.80;86.60;;;;;;4942351;29;20069;-82
2022/06/04 05:34:48;;;;;;;26.30;15.00;;;17.80;86.40;;;;;;4956514;28;20023;-82
2022/06/04 05:37:13;;;;;;;23.00;14.77;;;17.80;86.30;;;;;;4957811;28;20505;-82
2022/06/04 05:39:39;;;;;;;25.33;14.82;;;17.90;86.30;;;;;;4957792;28;20036;-82
2022/06/04 05:42:05;;;;;;;25.00;15.50;;;18.00;86.30;;;;;;4951140;28;20056;-82
2022/06/04 05:44:31;;;;;;;21.67;14.82;;;18.00;86.00;;;;;;4938478;29;20046;-82
2022/06/04 05:46:57;;;;;;;24.60;14.90;;;18.10;86.10;;;;;;4949332;29;20027;-82
2022/06/04 05:49:23;;;;;;;19.15;13.90;;;18.20;85.80;;;;;;4956416;29;20122;-82
2022/06/04 05:51:51;;;;;;;22.52;14.93;;;18.30;85.50;;;;;;4957562;28;20035;-82
2022/06/04 05:54:17;;;;;;;22.25;14.50;;;18.30;85.20;;;;;;4954932;29;20078;-82
2022/06/04 05:56:45;;;;;;;23.65;15.02;;;18.40;85.40;;;;;;4957367;28;20445;-81
2022/06/04 05:59:14;;;;;;;19.98;12.95;;;18.60;85.20;;;;;;4957530;28;20031;-82
2022/06/04 06:01:41;;;;;;;25.63;14.13;;;18.80;84.30;;;;;;4956170;29;20038;-82
2022/06/04 06:04:08;;;;;;;24.67;15.27;;;18.80;83.90;;;;;;4954278;29;20469;-82
2022/06/04 06:06:37;;;;;;;23.33;14.93;;;18.90;84.30;;;;;;4938111;29;20042;-83
2022/06/04 06:09:05;;;;;;;24.52;14.30;;;19.00;83.60;;;;;;4937591;29;20070;-77
2022/06/04 06:11:31;;;;;;;21.38;13.60;;;18.90;83.90;;;;;;4960901;28;20020;-79
2022/06/04 06:13:57;;;;;;;22.70;14.55;;;18.80;83.90;;;;;;4945901;28;20402;-78
2022/06/04 06:16:25;;;;;;;24.70;14.38;;;18.90;84.20;;;;;;4937974;29;20027;-78
2022/06/04 06:18:51;;;;;;;21.48;14.35;;;18.80;84.00;;;;;;4937633;29;20042;-78
2022/06/04 06:21:26;;;;;;;26.85;15.07;;;18.80;84.10;;;;;;4942022;29;20020;-79
2022/06/04 06:23:54;;;;;;;23.80;14.50;;;18.60;84.70;;;;;;4937755;29;20024;-79
2022/06/04 06:26:22;;;;;;;24.73;14.73;;;18.70;85.10;;;;;;4937659;29;20106;-79
2022/06/04 06:28:48;;;;;;;24.35;15.43;;;18.70;84.90;;;;;;4937286;29;20036;-80
2022/06/04 06:31:18;;;;;;;27.75;16.13;;;18.70;85.10;;;;;;4952504;28;20025;-80
2022/06/04 06:33:44;;;;;;;27.90;15.88;;;18.70;85.50;;;;;;4967039;28;20027;-79
2022/06/04 06:36:13;;;;;;;22.70;15.90;;;18.70;85.70;;;;;;4946606;28;20099;-77
2022/06/04 06:38:39;;;;;;;24.70;15.88;;;18.70;85.40;;;;;;4956220;28;20354;-77
2022/06/04 06:41:06;;;;;;;29.02;15.68;;;18.80;85.70;;;;;;4952381;29;20133;-78
2022/06/04 06:43:35;;;;;;;24.63;15.25;;;18.80;85.50;;;;;;4952213;28;20036;-78
2022/06/04 06:46:12;;;;;;;22.73;13.73;;;18.90;85.30;;;;;;4936766;29;20027;-78
2022/06/04 06:48:40;;;;;;;20.10;14.65;;;19.00;85.20;;;;;;4937154;29;20031;-78
2022/06/04 06:51:18;;;;;;;21.25;13.85;;;19.00;84.90;;;;;;4950812;29;20038;-80
2022/06/04 06:53:44;;;;;;;21.38;14.07;;;19.20;84.90;;;;;;4951790;29;20027;-76
2022/06/04 06:56:23;;;;;;;17.85;12.20;;;19.20;85.00;;;;;;4944683;29;20598;-76
2022/06/04 06:58:50;;;;;;;19.42;11.48;;;19.30;84.70;;;;;;4949241;29;20087;-78
2022/06/04 07:01:16;;;;;;;17.67;11.57;;;19.40;84.70;;;;;;4954167;28;20039;-78
2022/06/04 07:03:43;;;;;;;19.63;11.43;;;19.60;84.70;;;;;;4954075;29;20027;-79
2022/06/04 07:06:12;;;;;;;18.52;11.63;;;19.70;84.10;;;;;;4952712;28;20026;-79
2022/06/04 07:08:39;;;;;;;14.77;10.80;;;19.80;83.80;;;;;;4955269;28;20545;-79
2022/06/04 07:11:05;;;;;;;13.75;10.75;;;19.80;83.80;;;;;;4948995;29;20016;-78
2022/06/04 07:13:31;;;;;;;18.50;11.95;;;19.80;83.50;;;;;;4953846;29;20087;-77
2022/06/04 07:15:57;;;;;;;14.35;10.20;;;19.90;83.60;;;;;;4955394;28;20829;-78
2022/06/04 07:18:24;;;;;;;16.33;11.95;;;19.90;83.50;;;;;;4951297;29;20031;-77
2022/06/04 07:20:49;;;;;;;14.73;10.25;;;20.00;83.30;;;;;;4963532;28;20061;-79
2022/06/04 07:23:16;;;;;;;14.85;10.73;;;20.10;83.30;;;;;;4952950;29;20039;-76
2022/06/04 07:25:44;;;;;;;13.68;10.43;;;20.30;82.90;;;;;;4942405;28;20035;-76
2022/06/04 07:28:11;;;;;;;13.43;10.70;;;20.40;83.00;;;;;;4950921;28;20027;-77
2022/06/04 07:30:37;;;;;;;15.77;10.18;;;20.80;82.20;;;;;;4949768;28;20028;-78
2022/06/04 07:33:03;;;;;;;11.05;8.63;;;21.60;80.80;;;;;;4945424;29;20283;-77
2022/06/04 07:35:29;;;;;;;11.43;7.55;;;22.80;77.90;;;;;;4966421;28;20023;-77
2022/06/04 07:37:54;;;;;;;9.60;6.40;;;24.70;70.80;;;;;;4932579;28;20407;-77
2022/06/04 07:40:22;;;;;;;10.73;6.78;;;27.70;62.90;;;;;;4948090;29;20023;-76
2022/06/04 07:42:48;;;;;;;8.13;6.10;;;29.70;55.20;;;;;;4959628;28;20043;-76
2022/06/04 07:45:14;;;;;;;10.35;6.18;;;31.30;48.20;;;;;;4943661;28;20034;-76
2022/06/04 07:47:45;;;;;;;7.03;6.32;;;31.30;50.20;;;;;;4944508;28;20023;-76
2022/06/04 07:50:13;;;;;;;8.35;7.20;;;31.30;47.30;;;;;;4945071;29;20470;-76
2022/06/04 07:52:38;;;;;;;6.60;5.97;;;32.20;47.30;;;;;;4950291;28;20038;-76
2022/06/04 07:55:06;;;;;;;7.45;6.35;;;33.00;44.80;;;;;;4951119;28;20481;-75
2022/06/04 07:57:33;;;;;;;8.32;7.35;;;31.90;46.40;;;;;;4946907;29;20375;-75
2022/06/04 07:59:59;;;;;;;8.55;6.68;;;31.50;48.10;;;;;;4943015;28;20035;-77
2022/06/04 08:02:25;;;;;;;8.00;6.45;;;32.70;45.00;;;;;;4945563;28;20034;-75
2022/06/04 08:04:53;;;;;;;7.47;6.70;;;33.80;42.80;;;;;;4946848;28;20032;-76
2022/06/04 08:07:20;;;;;;;6.13;5.60;;;35.00;41.40;;;;;;4953537;29;20035;-76
2022/06/04 08:09:48;;;;;;;7.70;6.63;;;35.60;41.40;;;;;;4953364;29;20585;-76
2022/06/04 08:12:14;;;;;;;8.00;6.97;;;35.90;38.40;;;;;;4948730;29;20065;-76
2022/06/04 08:14:42;;;;;;;7.53;6.05;;;36.60;37.30;;;;;;4945421;29;20286;-76
2022/06/04 08:17:09;;;;;;;9.70;6.53;;;36.50;37.50;;;;;;4953899;28;20015;-75
2022/06/04 08:19:35;;;;;;;7.05;6.45;;;35.40;38.60;;;;;;4946133;28;20058;-76
2022/06/04 08:22:01;;;;;;;6.65;5.70;;;34.90;40.40;;;;;;4951651;28;20019;-75
2022/06/04 08:24:27;;;;;;;6.68;6.07;;;35.20;37.60;;;;;;4951510;29;20031;-77
2022/06/04 08:26:58;;;;;;;7.20;5.95;;;35.60;39.20;;;;;;4951833;29;20055;-76
2022/06/04 08:29:26;;;;;;;6.00;5.40;;;36.40;37.70;;;;;;4952785;28;20501;-76
2022/06/04 08:31:51;;;;;;;6.45;5.82;;;36.20;37.90;;;;;;4954438;28;20035;-77
2022/06/04 08:34:17;;;;;;;6.65;5.28;;;36.70;37.80;;;;;;4956935;28;20083;-77
2022/06/04 08:36:43;;;;;;;8.43;7.40;;;36.60;38.30;;;;;;4955492;28;20063;-76
2022/06/04 08:39:10;;;;;;;6.70;5.43;;;36.90;37.40;;;;;;4971812;28;20035;-75
2022/06/04 08:42:10;;;;;;;6.28;5.68;;;35.80;38.20;;;;;;4955321;29;20035;-74
2022/06/04 08:44:52;;;;;;;6.07;5.25;;;36.60;37.00;;;;;;4954050;28;20502;-81
2022/06/04 08:47:31;;;;;;;7.80;5.75;;;37.30;36.00;;;;;;4950957;28;20090;-74
2022/06/04 08:50:06;;;;;;;6.35;5.75;;;37.70;34.90;;;;;;4948911;28;20134;-75
2022/06/04 08:52:39;;;;;;;6.32;5.43;;;37.80;34.60;;;;;;4956768;28;20095;-77
2022/06/04 08:58:25;;;;;;;8.45;5.30;;;36.60;36.40;;;;;;4948779;29;20187;-80
2022/06/04 09:01:09;;;;;;;7.50;5.60;;;37.10;33.50;;;;;;4939420;29;20411;-76
2022/06/04 09:03:39;;;;;;;6.30;4.85;;;36.70;35.90;;;;;;4938960;29;20098;-80
2022/06/04 09:06:30;;;;;;;4.68;4.18;;;37.30;36.30;;;;;;4938497;29;20032;-78
2022/06/04 09:09:03;;;;;;;5.63;5.13;;;37.60;34.60;;;;;;4944590;29;20172;-76
2022/06/04 09:11:37;;;;;;;7.07;5.45;;;37.00;34.30;;;;;;4946453;29;20034;-76
2022/06/04 09:14:18;;;;;;;5.35;4.85;;;37.10;35.00;;;;;;4939570;29;20398;-78
2022/06/04 09:16:53;;;;;;;7.82;5.15;;;37.80;35.60;;;;;;4955575;29;20035;-78
2022/06/04 09:19:24;;;;;;;6.40;5.20;;;38.30;34.40;;;;;;4947946;28;20438;-76
2022/06/04 09:21:49;;;;;;;5.40;4.68;;;38.50;33.10;;;;;;4953283;29;20030;-76
2022/06/04 09:24:15;;;;;;;8.20;4.28;;;38.60;33.40;;;;;;4947304;28;20511;-77
2022/06/04 09:26:50;;;;;;;4.35;3.50;;;37.80;33.60;;;;;;4953171;29;20046;-79
2022/06/04 09:29:31;;;;;;;5.43;4.03;;;38.30;33.90;;;;;;4953347;29;20031;-75
2022/06/04 09:32:26;;;;;;;4.60;3.88;;;38.70;32.00;;;;;;4951993;29;20024;-78
2022/06/04 09:34:54;;;;;;;7.35;4.00;;;39.00;33.50;;;;;;4947939;29;20019;-75
2022/06/04 09:37:19;;;;;;;5.75;4.03;;;39.00;30.90;;;;;;4947596;29;20141;-76
2022/06/04 09:39:59;;;;;;;4.45;4.05;;;39.30;31.90;;;;;;4946515;28;20143;-75
2022/06/04 09:42:30;;;;;;;5.25;4.28;;;38.70;30.90;;;;;;4953252;29;20047;-76
2022/06/04 09:45:05;;;;;;;7.25;4.20;;;38.50;32.90;;;;;;4945253;29;20016;-75
2022/06/04 09:47:38;;;;;;;3.20;2.40;;;39.10;32.40;;;;;;4970903;28;20090;-75
2022/06/04 09:50:21;;;;;;;3.17;2.00;;;39.30;32.20;;;;;;4956378;29;20355;-75
2022/06/04 09:53:11;;;;;;;5.32;2.80;;;39.20;31.80;;;;;;4952549;29;20045;-75
2022/06/04 09:55:44;;;;;;;3.40;2.13;;;39.30;29.80;;;;;;4938108;29;20027;-75
2022/06/04 09:58:40;;;;;;;2.10;1.80;;;39.30;27.10;;;;;;4938285;29;20032;-75
2022/06/04 10:01:23;;;;;;;2.42;2.00;;;39.00;28.80;;;;;;4937560;29;20501;-75
2022/06/04 10:04:14;;;;;;;2.58;2.17;;;38.80;29.40;;;;;;4936502;29;20172;-74
2022/06/04 10:06:40;;;;;;;2.47;2.00;;;39.10;29.90;;;;;;4950638;29;20031;-76
2022/06/04 10:12:03;;;;;;;1.70;1.58;;;38.90;28.60;;;;;;4957337;29;20160;-80
2022/06/04 10:14:37;;;;;;;4.40;1.75;;;38.80;28.60;;;;;;4955668;28;20055;-78
2022/06/04 10:17:25;;;;;;;3.38;1.60;;;39.10;28.50;;;;;;4952733;28;20289;-77
2022/06/04 10:19:52;;;;;;;3.67;1.88;;;38.90;29.50;;;;;;4948103;28;20498;-77
2022/06/04 10:22:18;;;;;;;4.75;2.30;;;37.50;30.90;;;;;;4955590;28;20059;-76
2022/06/04 10:24:56;;;;;;;2.65;1.58;;;37.70;29.60;;;;;;4950942;28;20035;-75
2022/06/04 10:27:52;;;;;;;2.90;1.88;;;37.90;30.70;;;;;;4956635;28;20406;-75
2022/06/04 10:30:48;;;;;;;3.88;1.50;;;37.40;30.00;;;;;;4947134;28;20046;-75
2022/06/04 10:33:27;;;;;;;2.42;1.40;;;37.40;31.70;;;;;;4954493;28;20027;-78
2022/06/04 10:36:24;;;;;;;3.50;1.50;;;37.30;29.60;;;;;;4946703;29;20090;-75
2022/06/04 10:39:04;;;;;;;2.85;1.20;;;36.80;30.70;;;;;;4962313;29;20738;-75
2022/06/04 10:41:31;;;;;;;1.70;1.40;;;35.80;32.50;;;;;;4960255;29;20055;-77
2022/06/04 10:44:15;;;;;;;2.22;1.70;;;34.80;32.70;;;;;;4941783;29;20035;-74
2022/06/04 10:46:59;;;;;;;2.70;1.30;;;34.40;34.00;;;;;;4940367;29;20547;-75
2022/06/04 10:49:24;;;;;;;2.63;1.60;;;33.80;33.90;;;;;;4937637;29;20032;-78
2022/06/04 10:51:55;;;;;;;3.00;1.50;;;33.30;34.20;;;;;;4942238;28;20034;-75
2022/06/04 10:54:33;;;;;;;2.83;1.58;;;33.00;34.80;;;;;;4937493;29;20028;-76
2022/06/04 10:57:17;;;;;;;2.95;1.85;;;33.00;36.60;;;;;;4937214;29;20039;-76
2022/06/04 10:59:50;;;;;;;3.40;1.52;;;32.90;37.40;;;;;;4937394;29;20519;-75
2022/06/04 11:02:49;;;;;;;2.08;1.60;;;32.60;37.40;;;;;;4937358;29;20027;-78
2022/06/04 11:05:15;;;;;;;1.70;1.42;;;32.30;37.80;;;;;;4952803;29;20036;-75
2022/06/04 11:07:53;;;;;;;3.88;1.77;;;31.90;37.20;;;;;;4951760;28;20095;-82
2022/06/04 11:10:37;;;;;;;2.72;1.63;;;31.80;36.80;;;;;;4964166;28;20490;-80
2022/06/04 11:13:12;;;;;;;2.50;1.70;;;31.30;38.90;;;;;;4937115;29;20548;-85
2022/06/04 11:15:54;;;;;;;2.83;1.80;;;30.80;38.90;;;;;;4958655;28;20035;-76
2022/06/04 11:18:30;;;;;;;3.53;1.83;;;31.20;39.50;;;;;;4949723;29;20387;-78
2022/06/04 11:21:11;;;;;;;3.55;1.77;;;31.70;37.80;;;;;;4944123;29;20031;-79
2022/06/04 11:23:47;;;;;;;2.17;1.80;;;32.00;40.40;;;;;;4956853;28;20538;-79
2022/06/04 11:26:38;;;;;;;3.15;1.63;;;32.10;37.10;;;;;;4948644;29;20035;-79
2022/06/04 11:29:05;;;;;;;3.20;1.65;;;32.30;39.00;;;;;;4952406;28;20412;-80
2022/06/04 11:32:15;;;;;;;2.35;1.60;;;32.40;39.60;;;;;;4940341;29;20746;-79
2022/06/04 11:34:41;;;;;;;2.65;1.40;;;32.10;38.50;;;;;;4949731;29;20027;-78
2022/06/04 11:37:22;;;;;;;2.53;1.40;;;31.50;36.10;;;;;;4904625;28;20498;-80
2022/06/04 11:40:07;;;;;;;2.67;1.30;;;31.10;40.00;;;;;;4946612;28;20046;-78
2022/06/04 11:43:12;;;;;;;4.82;1.55;;;30.80;38.70;;;;;;4954826;28;20106;-78
2022/06/04 11:45:53;;;;;;;2.55;1.48;;;30.80;40.30;;;;;;4935491;29;20036;-77
2022/06/04 11:48:19;;;;;;;2.17;1.83;;;30.80;39.70;;;;;;4935816;29;20035;-77
2022/06/04 11:50:57;;;;;;;2.38;1.48;;;30.50;40.10;;;;;;4952876;28;20031;-79
2022/06/04 11:53:50;;;;;;;2.05;1.33;;;30.50;43.10;;;;;;4939822;28;20035;-76
2022/06/04 11:56:35;;;;;;;4.13;1.23;;;30.60;40.70;;;;;;4950956;28;20035;-79
2022/06/04 11:59:24;;;;;;;2.00;1.33;;;30.40;38.60;;;;;;4934136;29;20059;-77
2022/06/04 12:01:57;;;;;;;2.00;1.45;;;30.40;43.30;;;;;;4941433;29;20035;-83
2022/06/04 12:04:36;;;;;;;2.28;1.25;;;30.60;40.00;;;;;;4946487;28;20063;-76
2022/06/04 12:07:33;;;;;;;1.90;1.50;;;30.40;40.40;;;;;;4941361;28;20106;-77
2022/06/04 12:10:42;;;;;;;3.42;1.42;;;30.30;39.30;;;;;;4936847;29;20086;-77
2022/06/04 12:13:37;;;;;;;2.10;1.40;;;30.30;40.30;;;;;;4952222;29;20133;-77
2022/06/04 12:16:25;;;;;;;2.75;1.70;;;30.30;38.10;;;;;;4911375;29;20047;-78
2022/06/04 12:19:03;;;;;;;2.55;1.50;;;30.30;38.90;;;;;;4935920;29;20035;-78
2022/06/04 12:24:37;;;;;;;1.33;1.00;;;30.70;40.10;;;;;;4950483;29;20046;-79
2022/06/04 12:27:26;;;;;;;2.08;1.35;;;30.80;39.50;;;;;;4950771;28;20050;-80
2022/06/04 12:29:55;;;;;;;2.65;1.65;;;30.90;40.60;;;;;;4935611;29;20047;-79
2022/06/04 12:32:28;;;;;;;2.97;1.92;;;31.00;40.00;;;;;;4954555;28;20058;-80
2022/06/04 12:35:09;;;;;;;3.80;1.75;;;30.90;39.80;;;;;;4955097;28;20031;-79
2022/06/04 12:37:41;;;;;;;3.63;1.50;;;30.80;41.20;;;;;;4955305;28;20039;-79
2022/06/04 12:40:24;;;;;;;2.45;1.70;;;30.80;39.60;;;;;;4936271;29;20546;-78
2022/06/04 12:43:19;;;;;;;2.65;1.90;;;30.80;40.40;;;;;;4967970;28;20391;-80
2022/06/04 12:45:53;;;;;;;2.60;1.67;;;30.20;39.90;;;;;;4940417;28;20044;-81
2022/06/04 12:48:40;;;;;;;5.72;1.98;;;29.90;40.90;;;;;;4950667;29;20035;-80
2022/06/04 12:51:11;;;;;;;2.78;1.70;;;30.20;41.70;;;;;;4935943;29;20024;-81
2022/06/04 12:54:08;;;;;;;3.03;2.35;;;30.60;42.20;;;;;;4934902;29;20038;-80
2022/06/04 12:56:38;;;;;;;2.90;2.13;;;30.80;41.20;;;;;;4935355;29;20052;-81
2022/06/04 12:59:22;;;;;;;2.92;1.70;;;30.60;40.60;;;;;;4941307;28;20031;-80
2022/06/04 13:01:48;;;;;;;3.35;1.98;;;30.20;40.90;;;;;;4954043;28;20034;-80
2022/06/04 13:04:14;;;;;;;3.22;1.65;;;29.80;41.50;;;;;;4954729;28;20478;-80
2022/06/04 13:07:01;;;;;;;4.18;1.60;;;29.90;41.80;;;;;;4937561;28;20028;-80
2022/06/04 13:09:40;;;;;;;3.60;1.77;;;30.10;42.80;;;;;;4935631;29;20037;-80
2022/06/04 13:12:31;;;;;;;3.40;1.85;;;30.40;42.10;;;;;;4948552;29;20094;-80
2022/06/04 13:15:16;;;;;;;3.65;2.10;;;30.50;43.10;;;;;;4954819;28;20035;-80
2022/06/04 13:17:43;;;;;;;2.75;1.70;;;30.40;41.50;;;;;;4949570;28;20039;-80
2022/06/04 13:20:35;;;;;;;3.53;1.75;;;30.50;42.90;;;;;;4941071;29;20019;-80
2022/06/04 13:23:27;;;;;;;3.00;1.83;;;30.60;41.50;;;;;;4968448;28;20027;-80
2022/06/04 13:26:25;;;;;;;7.13;2.45;;;30.60;40.30;;;;;;4938954;29;20080;-80